Terminal Aerodrome Forecast
Issued by NWS

Home | Current Version | Previous Version | Text Only | Print | Product List | Glossary On
Versions: 1 2 3 4 5 6 7 8 9 10 11 12 13
212
FTUS43 KBIS 230547
TAFDIK
TAF
KDIK 230547Z 2306/2406 28010KT P6SM BKN180
     FM231200 28012KT P6SM SCT200
     FM231600 28013G18KT P6SM FEW300
     FM240000 26008KT P6SM FEW250=

USA.gov is the U.S. government's official web portal to all federal, state and local government web resources and services.